createdAt,value
2019-04-23T00:00:07.549Z,7.35
2019-04-23T00:02:35.426Z,7.75
2019-04-23T00:05:15.578Z,7.42
2019-04-23T00:12:53.106Z,6.08
2019-04-23T00:15:13.537Z,6.80
2019-04-23T00:20:14.469Z,6.65
2019-04-23T00:22:53.296Z,6.53
2019-04-23T00:30:44.051Z,6.22
2019-04-23T00:33:12.379Z,5.40
2019-04-23T00:35:38.856Z,6.40
2019-04-23T00:38:13.961Z,5.47
2019-04-23T00:40:39.019Z,6.12
2019-04-23T00:43:13.487Z,6.83
2019-04-23T00:45:47.105Z,5.58
2019-04-23T00:48:15.056Z,5.67
2019-04-23T00:50:52.988Z,5.15
2019-04-23T00:53:12.593Z,5.80
2019-04-23T01:00:51.405Z,6.12
2019-04-23T01:05:50.264Z,3.85
2019-04-23T01:08:22.068Z,5.97
2019-04-23T01:11:03.182Z,6.30
2019-04-23T01:13:38.722Z,5.55
2019-04-23T01:16:00.764Z,5.97
2019-04-23T01:20:53.548Z,5.78
2019-04-23T01:23:13.803Z,6.20
2019-04-23T01:25:54.599Z,6.15
2019-04-23T01:28:45.060Z,5.58
2019-04-23T01:31:16.544Z,6.05
2019-04-23T01:38:45.595Z,3.77
2019-04-23T01:41:14.492Z,5.83
2019-04-23T01:43:42.833Z,6.17
2019-04-23T01:46:14.004Z,5.67
2019-04-23T01:48:48.248Z,5.83
2019-04-23T01:51:06.651Z,5.72
2019-04-23T01:53:45.692Z,4.78
2019-04-23T01:56:20.409Z,5.90
2019-04-23T01:58:43.977Z,6.10
2019-04-23T02:01:16.115Z,5.50
2019-04-23T02:03:48.536Z,5.05
2019-04-23T02:08:50.469Z,6.00
2019-04-23T02:11:11.464Z,6.35
2019-04-23T02:13:49.120Z,5.72
2019-04-23T02:16:21.439Z,5.60
2019-04-23T02:18:52.782Z,5.70
2019-04-23T02:21:43.973Z,4.97
2019-04-23T02:24:03.652Z,5.58
2019-04-23T02:26:39.922Z,4.75
2019-04-23T02:29:15.924Z,3.90
2019-04-23T02:34:43.314Z,5.57
2019-04-23T02:36:55.058Z,5.70
2019-04-23T02:39:22.409Z,5.72
2019-04-23T02:42:01.657Z,6.30
2019-04-23T02:47:06.233Z,5.83
2019-04-23T02:49:26.989Z,5.03
2019-04-23T02:51:59.349Z,5.30
2019-04-23T02:54:37.564Z,5.42
2019-04-23T02:57:05.705Z,6.03
2019-04-23T02:59:53.807Z,5.80
2019-04-23T03:02:17.455Z,5.78
2019-04-23T03:04:35.674Z,4.60
2019-04-23T03:07:01.120Z,5.95
2019-04-23T03:09:43.238Z,4.33
2019-04-23T03:12:07.822Z,5.53
2019-04-23T03:14:32.994Z,5.65
2019-04-23T03:17:03.000Z,4.15
2019-04-23T03:22:35.118Z,5.40
2019-04-23T03:25:07.115Z,5.83
2019-04-23T03:27:31.887Z,5.90
2019-04-23T03:30:06.804Z,6.25
2019-04-23T03:37:35.590Z,4.55
2019-04-23T03:42:37.251Z,4.55
2019-04-23T03:45:14.015Z,5.60
2019-04-23T03:47:32.184Z,5.67
2019-04-23T03:50:09.321Z,4.15
2019-04-23T03:52:36.998Z,5.30
2019-04-23T03:55:08.154Z,5.47
2019-04-23T04:05:01.020Z,5.65
2019-04-23T04:07:55.860Z,4.35
2019-04-23T04:10:00.024Z,6.08
2019-04-23T04:12:34.834Z,6.33
2019-04-23T04:18:01.205Z,6.22
2019-04-23T04:20:15.242Z,5.53
2019-04-23T04:23:00.367Z,5.55
2019-04-23T04:25:30.548Z,4.87
2019-04-23T04:27:54.488Z,4.70
2019-04-23T04:32:59.063Z,6.10
2019-04-23T04:37:56.351Z,5.30
2019-04-23T04:42:55.773Z,5.67
2019-04-23T04:45:30.355Z,5.95
2019-04-23T04:47:44.762Z,6.28
2019-04-23T04:50:14.973Z,6.00
2019-04-23T04:53:10.270Z,5.72
2019-04-23T04:55:21.463Z,6.20
2019-04-23T04:57:52.637Z,6.17
2019-04-23T05:00:39.703Z,6.85
2019-04-23T05:07:54.823Z,5.47
2019-04-23T05:10:36.290Z,5.72
2019-04-23T05:13:11.739Z,6.60
2019-04-23T05:15:23.238Z,6.62
2019-04-23T05:23:28.429Z,5.00
2019-04-23T05:25:44.723Z,5.50
2019-04-23T05:28:12.633Z,5.80
2019-04-23T05:30:46.407Z,5.58
2019-04-23T05:33:18.396Z,5.20
2019-04-23T05:36:06.216Z,6.33
2019-04-23T05:38:29.111Z,5.85
2019-04-23T05:40:53.778Z,5.42
2019-04-23T05:43:38.559Z,5.35
2019-04-23T05:45:53.109Z,5.10
2019-04-23T05:48:17.510Z,5.30
2019-04-23T05:50:59.167Z,5.92
2019-04-23T05:53:18.498Z,5.35
2019-04-23T05:55:51.389Z,4.03
2019-04-23T05:58:23.823Z,5.28
2019-04-23T06:00:58.096Z,4.12
2019-04-23T06:03:26.128Z,4.28
2019-04-23T06:05:54.243Z,4.33
2019-04-23T06:08:39.045Z,4.92
2019-04-23T06:10:55.546Z,5.00
2019-04-23T06:13:26.420Z,6.10
2019-04-23T06:15:53.612Z,3.85
2019-04-23T06:18:33.166Z,5.50
2019-04-23T06:26:10.083Z,4.80
2019-04-23T06:28:26.971Z,4.85
2019-04-23T06:31:02.719Z,4.42
2019-04-23T06:35:58.886Z,4.62
2019-04-23T06:38:41.043Z,5.03
2019-04-23T06:41:00.808Z,4.80
2019-04-23T06:43:34.981Z,4.53
2019-04-23T06:45:59.634Z,4.65
2019-04-23T06:51:09.431Z,4.20
2019-04-23T06:53:28.637Z,4.80
2019-04-23T06:56:03.860Z,4.50
2019-04-23T07:03:38.366Z,4.20
2019-04-23T07:11:28.639Z,4.22
2019-04-23T07:13:54.749Z,4.05
2019-04-23T07:16:10.987Z,4.00
2019-04-23T07:18:54.511Z,3.25
2019-04-23T07:23:44.921Z,3.15
2019-04-23T07:26:26.037Z,3.83
2019-04-23T07:28:49.871Z,3.65
2019-04-23T07:33:52.944Z,3.58
2019-04-23T07:36:17.140Z,4.03
2019-04-23T07:38:54.654Z,3.80
2019-04-23T07:46:59.527Z,4.67
2019-04-23T07:49:10.145Z,4.10
2019-04-23T07:51:46.765Z,5.20
2019-04-23T07:54:18.946Z,5.47
2019-04-23T07:56:42.209Z,3.85
2019-04-23T07:59:22.813Z,3.42
2019-04-23T08:01:39.186Z,4.22
2019-04-23T08:04:16.917Z,3.72
2019-04-23T08:06:49.077Z,4.20
2019-04-23T08:09:17.360Z,3.17
2019-04-23T08:12:07.878Z,3.55
2019-04-23T08:14:07.908Z,3.22
2019-04-23T08:16:40.147Z,4.55
2019-04-23T08:19:14.263Z,3.25
2019-04-23T08:21:45.978Z,4.37
2019-04-23T08:24:38.840Z,3.40
2019-04-23T08:27:04.282Z,3.62
2019-04-23T08:29:30.292Z,4.40
2019-04-23T08:37:09.358Z,3.95
2019-04-23T08:42:28.795Z,4.30
2019-04-23T08:44:47.082Z,3.17
2019-04-23T08:57:14.400Z,4.20
2019-04-23T08:59:47.360Z,4.42
2019-04-23T09:02:30.892Z,3.90
2019-04-23T09:04:54.915Z,5.20
2019-04-23T09:07:28.151Z,3.65
2019-04-23T09:09:50.969Z,4.85
2019-04-23T09:14:43.285Z,4.72
2019-04-23T09:17:37.559Z,3.52
2019-04-23T09:20:06.987Z,5.33
2019-04-23T09:22:25.124Z,4.87
2019-04-23T09:24:47.250Z,3.60
2019-04-23T09:27:22.582Z,4.30
2019-04-23T09:32:25.954Z,3.98
2019-04-23T09:35:05.914Z,4.30
2019-04-23T09:40:41.511Z,4.95
2019-04-23T09:43:00.676Z,3.02
2019-04-23T09:55:48.698Z,3.72
2019-04-23T09:58:08.165Z,3.30
2019-04-23T10:00:40.732Z,3.35
2019-04-23T10:03:03.604Z,3.70
2019-04-23T10:05:29.179Z,4.25
2019-04-23T10:07:59.858Z,3.98
2019-04-23T10:10:18.564Z,3.92
2019-04-23T10:12:50.190Z,4.15
2019-04-23T10:15:25.045Z,3.33
2019-04-23T10:17:50.018Z,4.60
2019-04-23T10:20:20.469Z,3.85
2019-04-23T10:22:50.481Z,4.70
2019-04-23T10:25:21.064Z,4.10
2019-04-23T10:27:55.059Z,3.65
2019-04-23T10:30:21.725Z,4.53
2019-04-23T10:32:51.649Z,3.83
2019-04-23T10:35:30.333Z,3.27
2019-04-23T10:37:59.665Z,4.75
2019-04-23T10:40:31.437Z,4.00
2019-04-23T10:45:41.439Z,4.28
2019-04-23T10:48:40.245Z,5.15
2019-04-23T10:51:18.607Z,4.72
2019-04-23T10:53:56.378Z,5.08
2019-04-23T10:56:37.120Z,3.08
2019-04-23T10:58:54.568Z,4.10
2019-04-23T11:01:31.903Z,4.33
2019-04-23T11:04:10.551Z,4.55
2019-04-23T11:06:39.814Z,5.05
2019-04-23T11:09:11.413Z,2.92
2019-04-23T11:11:36.127Z,4.22
2019-04-23T11:14:16.324Z,4.83
2019-04-23T11:16:50.785Z,5.95
2019-04-23T11:19:10.546Z,5.55
2019-04-23T11:21:45.810Z,3.45
2019-04-23T11:24:20.702Z,4.37
2019-04-23T11:26:42.449Z,4.12
2019-04-23T11:29:16.819Z,4.70
2019-04-23T11:31:43.059Z,4.05
2019-04-23T11:34:18.121Z,4.62
2019-04-23T11:39:05.462Z,4.30
2019-04-23T11:44:23.339Z,4.90
2019-04-23T11:49:34.243Z,4.37
2019-04-23T11:51:56.387Z,5.15
2019-04-23T11:54:21.372Z,5.30
2019-04-23T11:59:25.884Z,4.60
2019-04-23T12:02:00.807Z,5.50
2019-04-23T12:04:48.626Z,4.45
2019-04-23T12:07:14.114Z,5.15
2019-04-23T12:09:48.774Z,4.47
2019-04-23T12:12:16.870Z,4.55
2019-04-23T12:17:26.368Z,4.40
2019-04-23T12:19:55.805Z,5.92
2019-04-23T12:27:31.711Z,3.72
2019-04-23T12:32:43.286Z,5.60
2019-04-23T12:35:03.743Z,4.28
2019-04-23T12:42:59.025Z,4.47
2019-04-23T12:45:29.123Z,5.72
2019-04-23T12:47:56.391Z,4.78
2019-04-23T12:53:00.663Z,5.15
2019-04-23T12:55:34.204Z,4.53
2019-04-23T12:58:01.911Z,4.35
2019-04-23T13:00:23.312Z,5.12
2019-04-23T13:05:23.146Z,4.65
2019-04-23T13:08:08.649Z,4.83
2019-04-23T13:10:35.637Z,4.30
2019-04-23T13:15:22.654Z,5.87
2019-04-23T13:20:23.662Z,4.58
2019-04-23T13:25:33.429Z,5.40
2019-04-23T13:33:08.340Z,4.50
2019-04-23T13:38:08.442Z,5.12
2019-04-23T13:40:46.361Z,5.05
2019-04-23T13:43:07.985Z,6.25
2019-04-23T13:48:06.931Z,5.12
2019-04-23T13:50:49.934Z,5.92
2019-04-23T13:53:29.137Z,4.87
2019-04-23T13:55:30.055Z,6.15
2019-04-23T14:00:47.300Z,5.87
2019-04-23T14:03:04.081Z,6.25
2019-04-23T14:05:49.599Z,4.90
2019-04-23T14:08:24.635Z,6.17
2019-04-23T14:11:02.262Z,5.33
2019-04-23T14:18:43.170Z,3.80
2019-04-23T14:20:53.202Z,6.20
2019-04-23T14:23:38.509Z,7.12
2019-04-23T14:28:30.764Z,5.87
2019-04-23T14:35:49.834Z,5.53
2019-04-23T14:41:06.140Z,6.08
2019-04-23T14:46:27.213Z,6.33
2019-04-23T14:48:27.885Z,5.10
2019-04-23T14:51:11.401Z,5.83
2019-04-23T14:58:42.844Z,5.72
2019-04-23T15:01:22.004Z,6.40
2019-04-23T15:03:42.492Z,5.67
2019-04-23T15:06:26.275Z,6.00
2019-04-23T15:08:54.734Z,6.30
2019-04-23T15:11:20.989Z,6.47
2019-04-23T15:13:52.264Z,6.45
2019-04-23T15:18:52.537Z,3.77
2019-04-23T15:21:47.361Z,4.65
2019-04-23T15:28:30.378Z,6.47
2019-04-23T15:31:26.563Z,5.05
2019-04-23T15:36:32.676Z,5.25
2019-04-23T15:41:23.673Z,7.42
2019-04-23T15:44:00.487Z,6.90
2019-04-23T15:46:26.885Z,6.28
2019-04-23T15:49:02.576Z,6.97
2019-04-23T15:53:58.297Z,7.58
2019-04-23T16:01:29.366Z,7.10
2019-04-23T16:03:28.973Z,5.67
2019-04-23T16:05:57.441Z,6.65
2019-04-23T16:11:39.278Z,7.03
2019-04-23T16:14:11.342Z,6.53
2019-04-23T16:16:31.579Z,7.12
2019-04-23T16:19:09.575Z,5.85
2019-04-23T16:21:54.709Z,6.30
2019-04-23T16:24:05.991Z,6.00
2019-04-23T16:26:39.226Z,6.15
2019-04-23T16:29:27.432Z,6.35
2019-04-23T16:34:29.219Z,6.47
2019-04-23T16:36:55.554Z,6.00
2019-04-23T16:39:24.194Z,6.60
2019-04-23T16:42:03.944Z,6.12
2019-04-23T16:44:29.462Z,6.60
2019-04-23T16:47:04.662Z,6.33
2019-04-23T16:49:36.274Z,6.80
2019-04-23T16:52:02.054Z,6.65
2019-04-23T16:54:33.188Z,5.55
2019-04-23T17:00:02.941Z,6.40
2019-04-23T17:02:12.076Z,6.75
2019-04-23T17:04:30.764Z,6.35
2019-04-23T17:07:02.461Z,6.12
2019-04-23T17:09:44.712Z,6.60
2019-04-23T17:14:35.800Z,6.92
2019-04-23T17:17:02.586Z,7.90
2019-04-23T17:19:39.593Z,7.60
2019-04-23T17:22:06.192Z,8.10
2019-04-23T17:24:30.110Z,7.67
2019-04-23T17:27:25.550Z,7.33
2019-04-23T17:32:10.065Z,7.87
2019-04-23T17:37:35.134Z,7.15
2019-04-23T17:40:08.548Z,7.47
2019-04-23T17:42:43.868Z,6.97
2019-04-23T17:48:03.774Z,6.83
2019-04-23T17:50:26.904Z,7.22
2019-04-23T17:52:59.070Z,7.47
2019-04-23T17:55:22.330Z,7.60
2019-04-23T17:57:59.001Z,6.17
2019-04-23T18:03:01.174Z,5.50
2019-04-23T18:05:40.721Z,7.45
2019-04-23T18:13:17.247Z,7.72
2019-04-23T18:15:25.302Z,7.10
2019-04-23T18:20:44.899Z,7.55
2019-04-23T18:28:11.993Z,8.58
2019-04-23T18:31:00.143Z,8.58
2019-04-23T18:36:06.135Z,7.45
2019-04-23T18:38:39.965Z,8.10
2019-04-23T18:43:35.695Z,7.75
2019-04-23T18:53:48.596Z,8.33
2019-04-23T18:56:21.574Z,8.53
2019-04-23T18:59:02.807Z,8.60
2019-04-23T19:01:22.856Z,8.50
2019-04-23T19:06:34.386Z,6.97
2019-04-23T19:09:23.409Z,8.33
2019-04-23T19:17:38.586Z,8.15
2019-04-23T19:19:44.229Z,8.15
2019-04-23T19:24:37.394Z,6.85
2019-04-23T19:29:46.196Z,7.12
2019-04-23T19:32:29.597Z,8.08
2019-04-23T19:34:40.671Z,8.08
2019-04-23T19:37:34.682Z,8.38
2019-04-23T19:39:43.221Z,7.75
2019-04-23T19:42:26.651Z,7.50
2019-04-23T19:44:45.561Z,6.22
2019-04-23T19:47:19.247Z,8.60
2019-04-23T19:49:45.288Z,7.15
2019-04-23T19:52:10.919Z,7.12
2019-04-23T19:54:51.818Z,7.97
2019-04-23T19:57:19.581Z,8.33
2019-04-23T20:04:46.126Z,8.43
2019-04-23T20:07:24.100Z,8.20
2019-04-23T20:12:15.627Z,7.30
2019-04-23T20:14:52.327Z,7.70
2019-04-23T20:19:50.787Z,7.75
2019-04-23T20:22:27.253Z,7.50
2019-04-23T20:25:37.928Z,9.03
2019-04-23T20:27:28.758Z,9.35
2019-04-23T20:40:16.671Z,7.15
2019-04-23T20:42:49.236Z,8.88
2019-04-23T20:45:17.019Z,6.87
2019-04-23T20:48:04.806Z,8.43
2019-04-23T20:50:10.150Z,7.08
2019-04-23T20:52:48.042Z,8.10
2019-04-23T20:55:17.307Z,7.47
2019-04-23T21:10:45.087Z,7.65
2019-04-23T21:15:35.870Z,7.78
2019-04-23T21:18:06.484Z,8.10
2019-04-23T21:23:09.404Z,7.92
2019-04-23T21:25:43.149Z,6.58
2019-04-23T21:38:56.705Z,7.75
2019-04-23T21:44:05.116Z,8.13
2019-04-23T21:46:22.647Z,7.60
2019-04-23T21:49:01.729Z,7.62
2019-04-23T21:53:46.375Z,7.17
2019-04-23T21:56:17.058Z,7.80
2019-04-23T21:58:54.846Z,6.83
2019-04-23T22:01:32.084Z,6.58
2019-04-23T22:04:09.087Z,5.85
2019-04-23T22:16:35.639Z,7.50
2019-04-23T22:19:10.676Z,6.92
2019-04-23T22:29:14.602Z,5.85
2019-04-23T22:31:37.583Z,6.85
2019-04-23T22:36:39.457Z,6.70
2019-04-23T22:39:07.837Z,6.50
2019-04-23T22:41:36.277Z,5.72
2019-04-23T22:46:48.161Z,5.80
2019-04-23T22:49:29.186Z,6.22
2019-04-23T22:54:11.845Z,6.42
2019-04-23T22:56:53.643Z,6.85
2019-04-23T22:59:27.981Z,6.60
2019-04-23T23:04:20.602Z,7.10
2019-04-23T23:11:54.176Z,5.62
2019-04-23T23:14:24.183Z,6.10
2019-04-23T23:16:54.834Z,6.80
2019-04-23T23:22:02.164Z,5.97
2019-04-23T23:24:21.642Z,5.65
2019-04-23T23:29:21.935Z,7.28
2019-04-23T23:34:28.181Z,6.03
2019-04-23T23:37:02.200Z,7.10
2019-04-23T23:39:28.839Z,4.70
2019-04-23T23:41:59.318Z,6.03
2019-04-23T23:47:03.059Z,6.33
2019-04-23T23:49:48.431Z,6.60
2019-04-23T23:51:57.934Z,6.17
2019-04-23T23:54:27.044Z,6.33
2019-04-23T23:57:11.266Z,5.67
2019-04-23T23:59:35.071Z,6.12
